Time;durP1;ratioP1;P1;durP2;ratioP2;P2;SDS_P1;SDS_P2;PMS_P1;PMS_P2;Temp;Humidity;BMP_temperature;BMP_pressure;BME280_temperature;BME280_humidity;BME280_pressure;Samples;Min_cycle;Max_cycle;Signal;HPM_P1;HPM_P2
2022/11/13 00:01:32;;;;;;;20.90;15.38;;;17.70;64.80;;;;;;5052779;28;20645;-55
2022/11/13 00:03:58;;;;;;;23.02;15.88;;;17.70;64.80;;;;;;5053597;28;20190;-54
2022/11/13 00:06:23;;;;;;;21.40;14.90;;;17.70;64.80;;;;;;5052875;28;20175;-57
2022/11/13 00:08:52;;;;;;;19.65;14.82;;;17.70;64.80;;;;;;5053025;28;20171;-57
2022/11/13 00:11:18;;;;;;;18.90;13.90;;;17.60;64.80;;;;;;5052925;28;20309;-56
2022/11/13 00:13:44;;;;;;;19.13;13.00;;;17.60;65.70;;;;;;5051843;28;20293;-54
2022/11/13 00:16:11;;;;;;;19.15;14.15;;;17.60;64.80;;;;;;5052683;28;20206;-54
2022/11/13 00:18:38;;;;;;;18.35;14.15;;;17.70;64.90;;;;;;5052773;28;20649;-53
2022/11/13 00:21:08;;;;;;;18.50;13.35;;;17.60;64.90;;;;;;5052463;28;20182;-54
2022/11/13 00:23:34;;;;;;;17.45;13.07;;;17.60;64.80;;;;;;5051735;28;20183;-55
2022/11/13 00:26:07;;;;;;;18.17;12.75;;;17.60;64.90;;;;;;5051868;28;20511;-55
2022/11/13 00:28:33;;;;;;;20.13;13.40;;;17.60;64.90;;;;;;5052314;28;20244;-54
2022/11/13 00:30:59;;;;;;;16.92;12.07;;;17.50;64.90;;;;;;5053113;28;20171;-53
2022/11/13 00:33:25;;;;;;;16.52;12.93;;;17.60;64.90;;;;;;5051992;28;20268;-57
2022/11/13 00:35:50;;;;;;;17.67;12.95;;;17.50;64.80;;;;;;5052637;28;20266;-52
2022/11/13 00:38:16;;;;;;;17.30;13.05;;;17.50;64.90;;;;;;5053096;28;20174;-57
2022/11/13 00:40:41;;;;;;;19.40;13.77;;;17.50;65.70;;;;;;5051597;28;20186;-53
2022/11/13 00:43:07;;;;;;;16.73;12.85;;;17.50;64.90;;;;;;5052329;28;20530;-56
2022/11/13 00:45:32;;;;;;;16.30;12.98;;;17.50;64.90;;;;;;5052510;28;20198;-56
2022/11/13 00:47:58;;;;;;;15.65;11.82;;;17.50;64.90;;;;;;5051775;28;20202;-55
2022/11/13 00:50:23;;;;;;;15.18;11.50;;;17.50;64.90;;;;;;5052639;28;20167;-54
2022/11/13 00:52:49;;;;;;;16.50;12.02;;;17.50;64.90;;;;;;5052227;28;20171;-53
2022/11/13 00:55:14;;;;;;;16.92;11.63;;;17.50;64.90;;;;;;5051715;28;20171;-57
2022/11/13 00:57:40;;;;;;;16.92;11.90;;;17.50;64.90;;;;;;5052345;28;20174;-55
2022/11/13 01:00:06;;;;;;;17.02;12.50;;;17.40;64.80;;;;;;5052525;28;20298;-53
2022/11/13 01:02:31;;;;;;;15.90;11.68;;;17.40;64.80;;;;;;5051568;28;20175;-55
2022/11/13 01:04:57;;;;;;;14.68;11.27;;;17.40;64.80;;;;;;5052192;28;20187;-53
2022/11/13 01:07:22;;;;;;;13.05;10.45;;;17.40;64.80;;;;;;5052456;28;20171;-58
2022/11/13 01:09:49;;;;;;;16.95;11.98;;;17.40;64.80;;;;;;5051234;28;20179;-57
2022/11/13 01:12:15;;;;;;;13.77;11.55;;;17.30;64.80;;;;;;5052086;28;20545;-56
2022/11/13 01:14:40;;;;;;;14.35;10.60;;;17.40;64.80;;;;;;5052033;28;20214;-52
2022/11/13 01:17:06;;;;;;;14.00;11.07;;;17.40;64.80;;;;;;5052045;28;20203;-54
2022/11/13 01:19:31;;;;;;;13.38;11.02;;;17.30;64.80;;;;;;5052296;28;20178;-56
2022/11/13 01:21:57;;;;;;;13.20;11.52;;;17.30;64.80;;;;;;5052732;28;20171;-55
2022/11/13 01:24:22;;;;;;;13.45;10.30;;;17.30;64.80;;;;;;5051383;28;20171;-54
2022/11/13 01:26:48;;;;;;;14.10;11.10;;;17.40;64.80;;;;;;5055049;28;20745;-55
2022/11/13 01:29:13;;;;;;;14.30;10.52;;;17.30;64.80;;;;;;5055639;28;20175;-52
2022/11/13 01:31:39;;;;;;;13.82;10.18;;;17.30;64.80;;;;;;5056216;28;20179;-55
2022/11/13 01:34:04;;;;;;;13.40;10.13;;;17.30;64.80;;;;;;5056414;28;20211;-54
2022/11/13 01:36:30;;;;;;;11.38;9.77;;;17.30;64.80;;;;;;5055390;28;20225;-51
2022/11/13 01:38:55;;;;;;;12.55;10.55;;;17.30;64.80;;;;;;5056404;28;20194;-54
2022/11/13 01:41:23;;;;;;;14.50;10.93;;;17.30;64.80;;;;;;5055111;28;20183;-53
2022/11/13 01:43:48;;;;;;;14.73;10.50;;;17.30;64.80;;;;;;5054894;28;20618;-53
2022/11/13 01:46:33;;;;;;;11.90;10.32;;;17.30;64.80;;;;;;5055907;28;20167;-54
2022/11/13 01:49:11;;;;;;;12.55;9.63;;;17.20;64.70;;;;;;5056157;28;20186;-52
2022/11/13 01:51:48;;;;;;;12.70;9.18;;;17.20;64.80;;;;;;5055034;28;20167;-54
2022/11/13 01:54:17;;;;;;;11.48;9.68;;;17.20;64.70;;;;;;5039067;28;20249;-55
2022/11/13 01:56:42;;;;;;;12.02;9.57;;;17.20;64.70;;;;;;5054832;28;20626;-54
2022/11/13 01:59:10;;;;;;;13.73;9.80;;;17.20;64.80;;;;;;5054188;28;20266;-55
2022/11/13 02:01:35;;;;;;;13.23;9.48;;;17.20;64.70;;;;;;5054050;28;20183;-54
2022/11/13 02:04:01;;;;;;;13.00;9.25;;;17.20;64.80;;;;;;5055807;28;20179;-56
2022/11/13 02:06:39;;;;;;;11.43;9.93;;;17.20;64.80;;;;;;5054960;28;20182;-55
2022/11/13 02:09:05;;;;;;;12.43;9.55;;;17.20;64.70;;;;;;5053610;28;20576;-57
2022/11/13 02:11:31;;;;;;;11.98;9.45;;;17.20;64.70;;;;;;5054513;28;20225;-56
2022/11/13 02:13:56;;;;;;;12.02;9.15;;;17.20;64.70;;;;;;5055727;28;20211;-53
2022/11/13 02:16:22;;;;;;;12.40;9.18;;;17.10;64.70;;;;;;5054014;28;20202;-56
2022/11/13 02:18:47;;;;;;;10.75;8.57;;;17.20;64.70;;;;;;5054505;28;20187;-53
2022/11/13 02:21:38;;;;;;;11.80;8.70;;;17.10;64.70;;;;;;5055429;28;20171;-53
2022/11/13 02:24:31;;;;;;;9.93;8.63;;;17.20;64.70;;;;;;5055482;28;20563;-52
2022/11/13 02:26:59;;;;;;;11.10;8.45;;;17.10;64.70;;;;;;5053615;28;20250;-55
2022/11/13 02:29:25;;;;;;;10.15;8.63;;;17.10;64.70;;;;;;5054094;28;20186;-55
2022/11/13 02:31:50;;;;;;;10.85;8.57;;;17.10;64.70;;;;;;5054409;28;20179;-56
2022/11/13 02:34:16;;;;;;;10.32;8.38;;;17.10;64.70;;;;;;5054015;28;20207;-56
2022/11/13 02:36:41;;;;;;;11.27;8.30;;;17.10;64.70;;;;;;5054689;28;20213;-56
2022/11/13 02:39:08;;;;;;;11.82;8.43;;;17.10;64.70;;;;;;5055359;28;20179;-56
2022/11/13 02:41:34;;;;;;;10.52;8.60;;;17.00;64.60;;;;;;5054189;28;20186;-53
2022/11/13 02:44:00;;;;;;;10.20;8.32;;;17.10;64.60;;;;;;5055032;28;20183;-54
2022/11/13 02:46:25;;;;;;;11.20;8.57;;;17.10;64.70;;;;;;5053930;28;20258;-56
2022/11/13 02:48:51;;;;;;;9.23;7.40;;;17.10;64.70;;;;;;5053986;28;20175;-56
2022/11/13 02:51:16;;;;;;;12.05;8.95;;;17.10;64.70;;;;;;5054849;28;20604;-53
2022/11/13 02:53:42;;;;;;;10.00;7.93;;;17.00;64.60;;;;;;5053529;28;20744;-53
2022/11/13 02:56:07;;;;;;;9.73;8.00;;;17.10;64.70;;;;;;5053897;28;20278;-55
2022/11/13 02:58:33;;;;;;;8.57;7.68;;;17.10;64.70;;;;;;5054445;28;20334;-54
2022/11/13 03:01:01;;;;;;;9.18;7.80;;;17.10;64.70;;;;;;5053712;28;20241;-56
2022/11/13 03:03:26;;;;;;;9.52;8.02;;;17.00;64.60;;;;;;5054508;28;20175;-51
2022/11/13 03:05:52;;;;;;;9.50;7.60;;;17.00;64.60;;;;;;5054112;28;20183;-56
2022/11/13 03:08:18;;;;;;;8.05;7.05;;;17.00;64.60;;;;;;5054074;28;20183;-55
2022/11/13 03:10:44;;;;;;;10.60;8.05;;;17.00;64.70;;;;;;5053982;28;20234;-55
2022/11/13 03:13:09;;;;;;;9.63;7.47;;;17.00;64.60;;;;;;5054415;28;20203;-52
2022/11/13 03:15:35;;;;;;;9.80;7.50;;;17.00;64.60;;;;;;5053108;28;20183;-56
2022/11/13 03:18:04;;;;;;;9.43;7.38;;;16.90;64.60;;;;;;5054549;28;20649;-55
2022/11/13 03:20:30;;;;;;;9.30;7.65;;;17.00;64.60;;;;;;5054106;28;20262;-55
2022/11/13 03:22:55;;;;;;;8.85;7.78;;;17.00;64.70;;;;;;5053466;28;20267;-56
2022/11/13 03:25:21;;;;;;;9.75;7.30;;;16.90;64.60;;;;;;5054501;28;20226;-56
2022/11/13 03:27:46;;;;;;;8.75;6.97;;;16.90;64.60;;;;;;5053897;28;20171;-55
2022/11/13 03:30:12;;;;;;;8.65;7.18;;;16.90;64.60;;;;;;5053390;28;20182;-54
2022/11/13 03:32:37;;;;;;;8.57;7.28;;;16.90;64.60;;;;;;5052983;28;20232;-55
2022/11/13 03:35:03;;;;;;;9.55;7.20;;;17.00;64.60;;;;;;5053066;28;20211;-55
2022/11/13 03:37:29;;;;;;;9.85;6.90;;;16.90;64.60;;;;;;5052155;28;20175;-56
2022/11/13 03:39:54;;;;;;;8.65;7.43;;;16.90;64.60;;;;;;5053062;28;20210;-55
2022/11/13 03:42:20;;;;;;;7.85;6.45;;;16.90;64.60;;;;;;5052917;28;20179;-56
2022/11/13 03:44:45;;;;;;;7.55;6.75;;;16.90;64.60;;;;;;5051720;28;20175;-56
2022/11/13 03:47:11;;;;;;;8.80;7.15;;;16.80;64.50;;;;;;5053555;28;20186;-56
2022/11/13 03:49:36;;;;;;;7.97;6.75;;;16.90;64.60;;;;;;5053088;28;20179;-54
2022/11/13 03:52:03;;;;;;;8.82;6.28;;;16.90;64.60;;;;;;5053109;28;20183;-54
2022/11/13 03:54:28;;;;;;;7.60;6.75;;;16.80;64.50;;;;;;5052150;28;20285;-56
2022/11/13 03:56:54;;;;;;;9.02;6.65;;;16.90;64.60;;;;;;5052569;28;20650;-56
2022/11/13 03:59:19;;;;;;;8.93;7.47;;;16.90;64.60;;;;;;5053154;28;20236;-56
2022/11/13 04:01:45;;;;;;;7.57;6.05;;;16.90;64.70;;;;;;5052945;28;20309;-53
2022/11/13 04:04:10;;;;;;;8.00;7.10;;;16.90;64.60;;;;;;5052598;28;20255;-56
2022/11/13 04:06:36;;;;;;;9.65;6.63;;;16.80;64.50;;;;;;5053022;28;20266;-55
2022/11/13 04:09:02;;;;;;;7.30;6.40;;;16.80;64.50;;;;;;5053268;28;20175;-57
2022/11/13 04:11:27;;;;;;;7.88;6.65;;;16.80;64.50;;;;;;5051509;28;20268;-56
2022/11/13 04:13:53;;;;;;;7.97;6.07;;;16.80;64.60;;;;;;5052837;28;20309;-56
2022/11/13 04:16:18;;;;;;;6.88;6.05;;;16.80;64.50;;;;;;5052839;28;20209;-54
2022/11/13 04:18:44;;;;;;;7.43;6.55;;;16.80;64.50;;;;;;5051833;28;20263;-53
2022/11/13 04:21:09;;;;;;;8.15;6.60;;;16.80;64.60;;;;;;5053294;28;20167;-55
2022/11/13 04:23:35;;;;;;;7.50;6.50;;;16.80;64.60;;;;;;5052812;28;20183;-54
2022/11/13 04:26:00;;;;;;;7.45;6.20;;;16.80;64.60;;;;;;5052260;28;20175;-54
2022/11/13 04:28:26;;;;;;;6.80;6.03;;;16.80;64.70;;;;;;5052077;28;20186;-53
2022/11/13 04:30:54;;;;;;;7.93;6.20;;;16.80;64.70;;;;;;5051974;28;20168;-55
2022/11/13 04:33:20;;;;;;;7.45;6.10;;;16.80;64.60;;;;;;5052399;28;20210;-58
2022/11/13 04:35:45;;;;;;;7.55;6.05;;;16.80;64.60;;;;;;5052680;28;20175;-55
2022/11/13 04:38:11;;;;;;;7.25;6.03;;;16.80;64.60;;;;;;5053128;28;20605;-55
2022/11/13 04:40:37;;;;;;;6.68;5.95;;;16.70;64.50;;;;;;5051923;28;20179;-53
2022/11/13 04:43:03;;;;;;;6.78;5.78;;;16.70;64.50;;;;;;5052554;28;20258;-56
2022/11/13 04:45:28;;;;;;;6.35;5.40;;;16.70;64.50;;;;;;5052685;28;20215;-55
2022/11/13 04:47:54;;;;;;;7.18;6.00;;;16.70;64.50;;;;;;5052104;28;20259;-55
2022/11/13 04:50:20;;;;;;;6.15;5.20;;;16.70;64.50;;;;;;5052893;28;20232;-56
2022/11/13 04:52:45;;;;;;;7.15;5.90;;;16.70;64.50;;;;;;5052544;28;20167;-53
2022/11/13 04:55:11;;;;;;;6.10;5.38;;;16.70;64.50;;;;;;5052186;28;20207;-56
2022/11/13 04:57:36;;;;;;;6.47;5.60;;;16.70;64.60;;;;;;5052094;28;20582;-53
2022/11/13 05:00:03;;;;;;;6.82;5.97;;;16.70;64.60;;;;;;5052563;28;20186;-55
2022/11/13 05:02:29;;;;;;;6.35;5.15;;;16.70;64.70;;;;;;5052415;28;20206;-56
2022/11/13 05:04:54;;;;;;;7.22;6.05;;;16.70;64.60;;;;;;5052461;28;20638;-55
2022/11/13 05:07:20;;;;;;;6.43;5.80;;;16.70;64.60;;;;;;5051957;28;20179;-53
2022/11/13 05:09:45;;;;;;;6.60;5.55;;;16.70;64.50;;;;;;5052530;28;20278;-54
2022/11/13 05:12:11;;;;;;;6.50;5.50;;;16.60;64.50;;;;;;5052058;28;20222;-51
2022/11/13 05:14:37;;;;;;;6.88;5.75;;;16.60;65.40;;;;;;5050580;28;20222;-54
2022/11/13 05:17:03;;;;;;;7.05;5.63;;;16.60;64.50;;;;;;5051802;28;20190;-53
2022/11/13 05:19:29;;;;;;;6.32;5.72;;;16.60;64.50;;;;;;5051676;28;20232;-55
2022/11/13 05:21:54;;;;;;;5.90;5.28;;;16.60;64.50;;;;;;5050389;28;20182;-55
2022/11/13 05:24:20;;;;;;;6.20;5.30;;;16.60;64.50;;;;;;5052535;28;20195;-54
2022/11/13 05:26:45;;;;;;;5.72;5.22;;;16.60;64.50;;;;;;5051766;28;20232;-53
2022/11/13 05:29:11;;;;;;;6.72;5.53;;;16.60;64.50;;;;;;5051521;28;20733;-55
2022/11/13 05:31:37;;;;;;;6.50;5.10;;;16.60;64.40;;;;;;5052012;28;20295;-57
2022/11/13 05:34:03;;;;;;;5.43;4.93;;;16.60;64.50;;;;;;5052215;28;20294;-57
2022/11/13 05:36:29;;;;;;;5.43;4.90;;;16.60;64.50;;;;;;5051265;28;20665;-53
2022/11/13 05:38:54;;;;;;;5.93;5.38;;;16.60;64.50;;;;;;5052307;28;20175;-56
2022/11/13 05:41:20;;;;;;;5.32;4.82;;;16.60;64.50;;;;;;5052286;28;20171;-55
2022/11/13 05:43:46;;;;;;;6.25;5.50;;;16.60;64.40;;;;;;5051184;28;20183;-55
2022/11/13 05:46:13;;;;;;;5.22;4.50;;;16.50;64.40;;;;;;5052463;28;20630;-51
2022/11/13 05:48:39;;;;;;;5.40;4.93;;;16.60;64.50;;;;;;5052091;28;20601;-54
2022/11/13 05:51:16;;;;;;;5.28;4.78;;;16.50;64.40;;;;;;5050682;28;20655;-55
2022/11/13 05:53:41;;;;;;;6.10;5.50;;;16.50;64.50;;;;;;5051334;28;20207;-53
2022/11/13 05:56:14;;;;;;;6.03;5.35;;;16.50;64.50;;;;;;5052282;28;20174;-50
2022/11/13 05:58:40;;;;;;;6.15;5.53;;;16.50;64.40;;;;;;5050778;28;20721;-52
2022/11/13 06:01:11;;;;;;;5.10;4.70;;;16.50;64.40;;;;;;5052146;28;20176;-54
2022/11/13 06:03:36;;;;;;;5.30;4.80;;;16.50;64.40;;;;;;5051115;28;20600;-52
2022/11/13 06:06:02;;;;;;;5.30;4.80;;;16.50;64.40;;;;;;5052135;28;20199;-54
2022/11/13 06:08:27;;;;;;;5.28;4.78;;;16.50;64.40;;;;;;5051487;28;20270;-54
2022/11/13 06:11:07;;;;;;;5.43;4.65;;;16.50;64.40;;;;;;5051460;28;20258;-54
2022/11/13 06:13:33;;;;;;;5.95;5.05;;;16.50;64.40;;;;;;5054909;28;20650;-52
2022/11/13 06:16:02;;;;;;;5.25;4.75;;;16.50;64.40;;;;;;5055731;28;20187;-53
2022/11/13 06:18:28;;;;;;;5.60;5.07;;;16.50;64.40;;;;;;5054580;28;20665;-53
2022/11/13 06:20:53;;;;;;;5.57;5.07;;;16.40;64.20;;;;;;5055636;28;20194;-52
2022/11/13 06:23:19;;;;;;;5.32;4.75;;;16.40;64.30;;;;;;5055611;28;20622;-53
2022/11/13 06:25:45;;;;;;;5.72;4.75;;;16.50;64.40;;;;;;5054267;28;20175;-55
2022/11/13 06:28:10;;;;;;;5.38;4.88;;;16.40;64.30;;;;;;5055127;28;20198;-53
2022/11/13 06:30:36;;;;;;;4.90;4.40;;;16.40;65.10;;;;;;5054752;28;20584;-54
2022/11/13 06:33:01;;;;;;;5.35;4.85;;;16.40;64.30;;;;;;5054478;28;20186;-53
2022/11/13 06:35:27;;;;;;;5.78;4.68;;;16.40;64.30;;;;;;5055201;28;20187;-55
2022/11/13 06:37:55;;;;;;;5.18;4.60;;;16.40;64.30;;;;;;5055113;28;20175;-55
2022/11/13 06:40:20;;;;;;;5.15;4.50;;;16.40;64.40;;;;;;5054459;28;20275;-56
2022/11/13 06:42:46;;;;;;;5.28;4.78;;;16.40;64.30;;;;;;5054930;28;20209;-51
2022/11/13 06:45:11;;;;;;;5.15;4.70;;;16.40;65.10;;;;;;5054837;28;20182;-56
2022/11/13 06:47:37;;;;;;;5.30;4.80;;;16.40;64.30;;;;;;5054143;28;20183;-54
2022/11/13 06:50:03;;;;;;;4.43;4.03;;;16.40;64.30;;;;;;5054802;28;20175;-54
2022/11/13 06:52:28;;;;;;;4.85;4.35;;;16.40;64.30;;;;;;5055296;28;20205;-55
2022/11/13 06:54:54;;;;;;;4.90;4.40;;;16.40;64.30;;;;;;5054366;28;20571;-53
2022/11/13 06:57:19;;;;;;;4.70;4.28;;;16.40;64.20;;;;;;5054995;28;20175;-54
2022/11/13 06:59:45;;;;;;;4.80;4.03;;;16.40;64.20;;;;;;5053270;28;20552;-53
2022/11/13 07:02:10;;;;;;;5.40;4.53;;;16.40;64.30;;;;;;5054767;28;20171;-49
2022/11/13 07:04:36;;;;;;;5.20;4.70;;;16.30;64.20;;;;;;5054346;28;20179;-55
2022/11/13 07:07:03;;;;;;;4.13;3.70;;;16.30;64.20;;;;;;5054254;28;20265;-53
2022/11/13 07:09:29;;;;;;;5.32;4.82;;;16.40;64.30;;;;;;5054595;28;20187;-56
2022/11/13 07:11:54;;;;;;;5.20;4.75;;;16.40;64.20;;;;;;5053912;28;20222;-53
2022/11/13 07:14:20;;;;;;;4.38;4.05;;;16.40;64.10;;;;;;5052154;28;20207;-51
2022/11/13 07:16:45;;;;;;;4.72;4.32;;;16.50;64.00;;;;;;5053872;28;20179;-52
2022/11/13 07:19:10;;;;;;;4.25;3.95;;;16.50;63.90;;;;;;5054391;28;20176;-55
2022/11/13 07:21:36;;;;;;;4.95;4.55;;;16.60;64.60;;;;;;5053555;28;20175;-51
2022/11/13 07:24:02;;;;;;;4.57;4.18;;;16.60;63.60;;;;;;5053414;28;20229;-54
2022/11/13 07:26:27;;;;;;;3.85;3.55;;;16.60;63.50;;;;;;5054374;28;20295;-54
2022/11/13 07:28:53;;;;;;;4.25;3.85;;;16.60;63.40;;;;;;5053329;28;20630;-54
2022/11/13 07:31:19;;;;;;;4.13;3.83;;;16.60;63.40;;;;;;5053864;28;20191;-55
2022/11/13 07:33:46;;;;;;;4.38;3.97;;;16.60;63.40;;;;;;5053893;28;20260;-53
2022/11/13 07:36:12;;;;;;;5.85;4.50;;;16.60;63.40;;;;;;5053682;28;20258;-57
2022/11/13 07:38:37;;;;;;;4.57;3.67;;;16.60;63.30;;;;;;5053997;28;20270;-54
2022/11/13 07:41:03;;;;;;;4.28;3.88;;;16.70;63.40;;;;;;5054167;28;20261;-53
2022/11/13 07:43:28;;;;;;;3.95;3.65;;;16.80;63.30;;;;;;5052989;28;20175;-57
2022/11/13 07:45:56;;;;;;;4.53;3.88;;;16.80;63.20;;;;;;5053305;28;20266;-55
2022/11/13 07:48:22;;;;;;;4.03;3.63;;;17.00;63.00;;;;;;5052530;28;20232;-53
2022/11/13 07:50:47;;;;;;;3.92;3.60;;;17.10;62.70;;;;;;5052810;28;20570;-53
2022/11/13 07:53:13;;;;;;;3.88;3.58;;;17.30;62.50;;;;;;5053928;28;20224;-53
2022/11/13 07:55:38;;;;;;;4.35;3.85;;;17.40;62.10;;;;;;5053334;28;20194;-53
2022/11/13 07:58:04;;;;;;;4.10;3.67;;;17.60;61.70;;;;;;5052136;28;20194;-53
2022/11/13 08:00:31;;;;;;;4.40;4.00;;;17.70;61.50;;;;;;5053237;28;20187;-56
2022/11/13 08:02:57;;;;;;;4.40;3.60;;;17.90;61.00;;;;;;5052195;28;20518;-56
2022/11/13 08:05:23;;;;;;;3.72;3.42;;;18.00;60.70;;;;;;5053535;28;20183;-56
2022/11/13 08:07:49;;;;;;;4.00;3.60;;;18.20;60.40;;;;;;5053229;28;20179;-53
2022/11/13 08:10:15;;;;;;;3.72;3.42;;;18.30;60.20;;;;;;5052667;28;20233;-55
2022/11/13 08:12:41;;;;;;;3.95;3.55;;;18.20;60.30;;;;;;5053234;28;20217;-54
2022/11/13 08:15:07;;;;;;;4.20;3.80;;;18.10;60.50;;;;;;5053164;28;20207;-55
2022/11/13 08:17:32;;;;;;;3.65;3.35;;;18.10;60.60;;;;;;5052231;28;20267;-57
2022/11/13 08:19:58;;;;;;;3.97;3.50;;;18.00;60.70;;;;;;5053229;28;20191;-53
2022/11/13 08:22:23;;;;;;;4.40;3.92;;;17.90;60.90;;;;;;5053557;28;20167;-54
2022/11/13 08:24:52;;;;;;;4.22;3.83;;;17.80;61.00;;;;;;5052279;28;20632;-54
2022/11/13 08:27:21;;;;;;;4.05;3.65;;;17.80;61.10;;;;;;5053323;28;20225;-55
2022/11/13 08:29:47;;;;;;;3.70;3.33;;;17.80;61.20;;;;;;5052889;28;20228;-57
2022/11/13 08:32:16;;;;;;;3.60;3.30;;;17.70;61.30;;;;;;5052450;28;20179;-54
2022/11/13 08:34:41;;;;;;;3.70;3.40;;;17.70;61.40;;;;;;5052018;28;20214;-56
2022/11/13 08:37:07;;;;;;;3.80;3.50;;;17.70;61.30;;;;;;5053253;28;20185;-56
2022/11/13 08:39:34;;;;;;;3.47;3.17;;;17.80;61.40;;;;;;5052022;28;20698;-55
2022/11/13 08:42:00;;;;;;;3.38;3.08;;;17.80;61.50;;;;;;5053133;28;20320;-54
2022/11/13 08:44:25;;;;;;;3.65;3.35;;;17.80;61.50;;;;;;5052915;28;20225;-55
2022/11/13 08:46:51;;;;;;;4.00;3.50;;;17.80;61.60;;;;;;5051963;28;20250;-56
2022/11/13 08:49:17;;;;;;;3.33;3.03;;;17.70;61.60;;;;;;5052669;28;20585;-54
2022/11/13 08:51:42;;;;;;;4.00;3.60;;;17.80;61.80;;;;;;5052730;28;20282;-56
2022/11/13 08:54:07;;;;;;;3.75;3.40;;;17.70;61.90;;;;;;5052226;28;20207;-54
2022/11/13 08:56:33;;;;;;;3.67;3.38;;;17.70;62.00;;;;;;5052545;28;20167;-55
2022/11/13 08:58:58;;;;;;;3.60;3.30;;;17.70;62.10;;;;;;5052381;28;20526;-55
2022/11/13 09:01:24;;;;;;;3.47;3.17;;;17.70;62.30;;;;;;5051969;28;20656;-57
2022/11/13 09:03:50;;;;;;;3.63;3.20;;;17.70;62.40;;;;;;5052310;28;20175;-55
2022/11/13 09:06:15;;;;;;;3.55;3.25;;;17.70;62.50;;;;;;5052099;28;20229;-57
2022/11/13 09:08:41;;;;;;;3.85;3.20;;;17.70;62.50;;;;;;5052431;28;20168;-55
2022/11/13 09:11:06;;;;;;;3.50;3.20;;;17.70;62.70;;;;;;5052536;28;20221;-56
2022/11/13 09:13:32;;;;;;;3.88;3.33;;;17.70;62.60;;;;;;5051624;28;20253;-57
2022/11/13 09:15:59;;;;;;;3.20;3.00;;;17.70;62.70;;;;;;5052894;28;20576;-55
2022/11/13 09:18:24;;;;;;;3.20;2.97;;;17.70;62.80;;;;;;5052284;28;20638;-57
2022/11/13 09:20:50;;;;;;;3.40;3.10;;;17.70;62.90;;;;;;5051723;28;20167;-55
2022/11/13 09:23:15;;;;;;;3.40;3.10;;;17.70;62.90;;;;;;5052615;28;20175;-56
2022/11/13 09:25:41;;;;;;;3.72;3.42;;;17.70;63.10;;;;;;5052060;28;20524;-55
2022/11/13 09:28:06;;;;;;;4.10;3.70;;;17.70;63.00;;;;;;5051854;28;20229;-52
2022/11/13 09:30:32;;;;;;;3.60;3.30;;;17.70;63.10;;;;;;5052069;28;20553;-55
2022/11/13 09:32:58;;;;;;;3.15;2.85;;;17.70;63.10;;;;;;5052371;28;20237;-56
2022/11/13 09:35:33;;;;;;;3.50;3.20;;;17.70;63.10;;;;;;5051085;28;20731;-57
2022/11/13 09:38:00;;;;;;;3.45;3.15;;;17.70;63.20;;;;;;5052674;28;20236;-57
2022/11/13 09:40:29;;;;;;;3.20;2.90;;;17.70;63.40;;;;;;5052457;28;20660;-54
2022/11/13 09:42:55;;;;;;;3.53;3.22;;;17.60;63.40;;;;;;5050385;28;20265;-52
2022/11/13 09:45:20;;;;;;;3.72;3.42;;;17.60;63.60;;;;;;5052515;28;20202;-55
2022/11/13 09:47:46;;;;;;;3.28;2.97;;;17.60;63.80;;;;;;5054460;28;20262;-54
2022/11/13 09:50:25;;;;;;;3.65;3.35;;;17.50;63.80;;;;;;5054832;28;20179;-57
2022/11/13 09:52:50;;;;;;;3.78;3.47;;;17.50;63.80;;;;;;5053844;28;20699;-55
2022/11/13 09:55:17;;;;;;;3.45;3.15;;;17.40;63.90;;;;;;5055809;28;20218;-56
2022/11/13 09:57:54;;;;;;;4.03;3.72;;;17.40;64.10;;;;;;5054642;28;20183;-52
2022/11/13 10:00:20;;;;;;;3.70;3.40;;;17.30;64.10;;;;;;5054091;28;20270;-49
2022/11/13 10:03:17;;;;;;;3.47;3.20;;;17.30;64.30;;;;;;5055033;28;20603;-56
2022/11/13 10:06:04;;;;;;;3.17;2.90;;;17.30;64.40;;;;;;5054207;28;20182;-57
2022/11/13 10:08:40;;;;;;;2.97;2.75;;;17.30;64.50;;;;;;5054517;28;20198;-54
2022/11/13 10:11:15;;;;;;;3.42;3.13;;;17.20;64.50;;;;;;5053337;28;20712;-54
2022/11/13 10:13:42;;;;;;;3.65;3.33;;;17.10;64.40;;;;;;5053899;28;20210;-56
2022/11/13 10:16:27;;;;;;;3.38;3.08;;;17.20;64.50;;;;;;5055325;28;20225;-54
2022/11/13 10:18:53;;;;;;;3.47;3.17;;;17.40;64.70;;;;;;5054701;28;20585;-53
2022/11/13 10:21:40;;;;;;;3.28;2.97;;;17.10;64.50;;;;;;5055132;28;20183;-55
2022/11/13 10:24:27;;;;;;;3.28;3.08;;;17.10;64.40;;;;;;5038431;28;20182;-54
2022/11/13 10:26:54;;;;;;;3.45;3.13;;;17.20;64.40;;;;;;5039476;28;20663;-50
2022/11/13 10:29:20;;;;;;;3.42;3.22;;;17.20;64.30;;;;;;5054321;28;20183;-54
2022/11/13 10:31:47;;;;;;;3.80;3.50;;;17.20;64.30;;;;;;5054139;28;20228;-51
2022/11/13 10:34:13;;;;;;;3.53;3.22;;;17.10;64.20;;;;;;5055189;28;20211;-56
2022/11/13 10:37:20;;;;;;;3.45;3.15;;;17.10;64.20;;;;;;5054931;28;20221;-53
2022/11/13 10:39:46;;;;;;;3.33;3.03;;;17.10;64.30;;;;;;5052644;28;20266;-68
2022/11/13 10:42:28;;;;;;;4.90;3.33;;;17.20;64.30;;;;;;5055078;28;20179;-69
2022/11/13 10:44:58;;;;;;;3.75;3.38;;;17.20;64.50;;;;;;5054305;28;20278;-67
2022/11/13 10:47:25;;;;;;;5.90;3.58;;;17.30;64.70;;;;;;5054455;28;20182;-73
2022/11/13 10:49:51;;;;;;;5.70;4.15;;;17.30;64.70;;;;;;5054656;28;20261;-72
2022/11/13 10:52:21;;;;;;;4.45;3.95;;;17.40;65.00;;;;;;5054296;28;20205;-69
2022/11/13 10:54:47;;;;;;;7.05;4.22;;;17.40;64.90;;;;;;5054572;28;20245;-68
2022/11/13 10:57:29;;;;;;;8.10;4.68;;;17.40;65.00;;;;;;5052573;28;20224;-73
2022/11/13 10:59:55;;;;;;;8.90;5.10;;;17.40;64.70;;;;;;5053819;28;20206;-67
2022/11/13 11:02:25;;;;;;;6.90;4.32;;;17.40;64.80;;;;;;5054510;28;20194;-68
2022/11/13 11:05:20;;;;;;;7.53;4.50;;;17.50;64.80;;;;;;5054547;28;20171;-68
2022/11/13 11:07:46;;;;;;;11.68;4.18;;;17.50;64.70;;;;;;5053350;28;20191;-70
2022/11/13 11:10:31;;;;;;;6.10;4.05;;;17.60;64.90;;;;;;5053502;28;20268;-68
2022/11/13 11:13:08;;;;;;;6.00;4.00;;;17.60;64.90;;;;;;5054337;28;20175;-68
2022/11/13 11:15:50;;;;;;;5.80;4.00;;;17.60;65.10;;;;;;5053172;28;20274;-69
2022/11/13 11:18:52;;;;;;;6.38;4.07;;;17.70;64.90;;;;;;5053440;28;20245;-71
2022/11/13 11:21:24;;;;;;;6.85;4.15;;;17.70;65.00;;;;;;5050705;28;20534;-67
2022/11/13 11:23:58;;;;;;;8.70;4.20;;;17.70;65.20;;;;;;5052186;28;20587;-68
2022/11/13 11:26:29;;;;;;;6.68;3.80;;;17.70;65.40;;;;;;5053285;28;20711;-70
2022/11/13 11:29:41;;;;;;;6.20;4.28;;;17.70;65.70;;;;;;5053261;28;20305;-68
2022/11/13 11:32:26;;;;;;;6.32;3.78;;;17.80;65.90;;;;;;5053780;28;20218;-71
2022/11/13 11:34:59;;;;;;;12.50;4.10;;;17.80;65.80;;;;;;5050916;28;20619;-70
2022/11/13 11:37:29;;;;;;;5.97;3.65;;;17.80;66.00;;;;;;5052802;28;20638;-70
2022/11/13 11:39:59;;;;;;;8.77;3.90;;;17.80;66.10;;;;;;5052731;28;20698;-72
2022/11/13 11:42:38;;;;;;;8.25;3.97;;;17.80;66.20;;;;;;5051340;28;20241;-72
2022/11/13 11:45:31;;;;;;;9.68;4.82;;;17.80;66.80;;;;;;5052197;28;20537;-76
2022/11/13 11:47:57;;;;;;;9.30;4.53;;;17.90;66.60;;;;;;5052996;28;20289;-74
2022/11/13 11:50:38;;;;;;;7.15;4.00;;;18.20;66.70;;;;;;5051504;28;20667;-70
2022/11/13 11:53:19;;;;;;;6.50;4.07;;;17.90;66.50;;;;;;5052224;28;20179;-69
2022/11/13 11:56:09;;;;;;;6.97;3.60;;;17.90;66.60;;;;;;5051192;28;20199;-71
2022/11/13 11:58:50;;;;;;;9.98;4.20;;;17.90;66.70;;;;;;5052646;28;20179;-71
2022/11/13 12:01:22;;;;;;;6.65;3.97;;;17.90;66.70;;;;;;5051479;28;20217;-70
2022/11/13 12:03:54;;;;;;;5.85;3.50;;;17.90;66.80;;;;;;5051088;28;20179;-71
2022/11/13 12:06:31;;;;;;;5.47;3.00;;;17.90;66.80;;;;;;5052458;28;20174;-73
2022/11/13 12:09:16;;;;;;;6.82;3.80;;;17.90;66.90;;;;;;5051422;28;20688;-73
2022/11/13 12:11:52;;;;;;;7.22;4.32;;;17.90;66.90;;;;;;5051901;28;20229;-72
2022/11/13 12:14:36;;;;;;;8.18;4.10;;;17.90;67.00;;;;;;5035460;28;20608;-65
2022/11/13 12:17:07;;;;;;;8.32;3.97;;;18.00;67.10;;;;;;5051718;28;20182;-72
2022/11/13 12:20:09;;;;;;;7.60;4.13;;;17.90;67.00;;;;;;5053300;28;20207;-72
2022/11/13 12:22:52;;;;;;;7.43;4.05;;;17.90;67.10;;;;;;5053155;28;20190;-72
2022/11/13 12:25:53;;;;;;;6.68;3.78;;;18.00;67.20;;;;;;5051358;28;20170;-72
2022/11/13 12:28:46;;;;;;;5.70;3.17;;;17.90;67.20;;;;;;5048331;28;20298;-66
2022/11/13 12:31:39;;;;;;;11.13;4.10;;;17.90;67.30;;;;;;5035538;28;20263;-71
2022/11/13 12:34:21;;;;;;;18.15;5.25;;;18.00;67.20;;;;;;5035311;28;20211;-66
2022/11/13 12:36:46;;;;;;;11.27;4.60;;;18.00;67.10;;;;;;5051519;28;20186;-70
2022/11/13 12:39:46;;;;;;;9.60;3.55;;;18.00;67.20;;;;;;5051169;28;20175;-71
2022/11/13 12:42:33;;;;;;;8.95;3.72;;;17.90;67.00;;;;;;5051766;28;20267;-70
2022/11/13 12:45:08;;;;;;;13.13;4.20;;;18.00;67.00;;;;;;5051317;28;20174;-68
2022/11/13 12:47:34;;;;;;;10.82;4.18;;;18.00;65.90;;;;;;5052096;28;20642;-74
2022/11/13 12:50:05;;;;;;;8.57;4.50;;;18.00;65.70;;;;;;5051788;28;20278;-74
2022/11/13 12:52:31;;;;;;;11.95;4.72;;;18.00;65.60;;;;;;5051641;28;20182;-74